Time;durP1;ratioP1;P1;durP2;ratioP2;P2;SDS_P1;SDS_P2;PMS_P1;PMS_P2;Temp;Humidity;BMP_temperature;BMP_pressure;BME280_temperature;BME280_humidity;BME280_pressure;Samples;Min_cycle;Max_cycle;Signal;HPM_P1;HPM_P2
2022/11/29 00:01:23;;;;;;;26.35;16.85;;;;;;;6.63;100.00;101432.22;5073821;28;20025;-35
2022/11/29 00:03:50;;;;;;;22.67;17.10;;;;;;;6.53;100.00;101424.47;5074304;28;20083;-35
2022/11/29 00:06:20;;;;;;;18.48;15.25;;;;;;;6.55;100.00;101435.03;5074073;28;20044;-35
2022/11/29 00:08:46;;;;;;;18.15;15.60;;;;;;;6.49;100.00;101427.72;5074465;28;20111;-35
2022/11/29 00:12:10;;;;;;;20.42;15.88;;;;;;;6.54;100.00;101441.41;5073554;28;20099;-35
2022/11/29 00:14:03;;;;;;;15.63;13.63;;;;;;;6.61;100.00;101440.47;5074182;28;20041;-35
2022/11/29 00:16:28;;;;;;;;;;;;;;;6.66;100.00;101430.00;5074513;28;20025;-35
2022/11/29 00:18:54;;;;;;;15.87;14.13;;;;;;;6.62;100.00;101438.63;5072940;28;19924;-35
2022/11/29 00:21:19;;;;;;;19.83;15.93;;;;;;;6.52;100.00;101425.50;5074370;28;20032;-35
2022/11/29 00:23:44;;;;;;;16.23;13.07;;;;;;;6.54;100.00;101436.91;5073912;28;20028;-35
2022/11/29 00:26:10;;;;;;;16.33;13.70;;;;;;;6.47;100.00;101433.28;5073626;28;20465;-35
2022/11/29 00:28:36;;;;;;;14.90;12.97;;;;;;;6.53;100.00;101447.81;5073760;28;20036;-35
2022/11/29 00:31:22;;;;;;;18.05;13.98;;;;;;;6.54;100.00;101447.66;5073517;28;20024;-35
2022/11/29 00:33:49;;;;;;;25.92;17.08;;;;;;;6.43;100.00;101446.25;5073981;28;20028;-35
2022/11/29 00:36:15;;;;;;;19.60;14.20;;;;;;;6.41;100.00;101434.06;5073414;28;20067;-35
2022/11/29 00:38:40;;;;;;;21.92;15.88;;;;;;;6.48;100.00;101443.00;5073885;28;20070;-35
2022/11/29 00:41:06;;;;;;;19.58;14.40;;;;;;;6.54;100.00;101447.66;5072973;28;20032;-35
2022/11/29 00:43:32;;;;;;;21.92;15.05;;;;;;;6.43;100.00;101438.22;5072858;28;20029;-35
2022/11/29 00:45:57;;;;;;;45.90;16.55;;;;;;;6.48;100.00;101450.25;5072896;28;20025;-35
2022/11/29 00:48:23;;;;;;;31.97;16.33;;;;;;;6.48;100.00;101453.75;5073272;28;20052;-35
2022/11/29 00:50:48;;;;;;;27.97;16.17;;;;;;;6.53;100.00;101459.41;5073576;28;20032;-35
2022/11/29 00:53:13;;;;;;;22.87;14.40;;;;;;;6.58;100.00;101456.16;5073149;28;20029;-35
2022/11/29 00:55:38;;;;;;;26.50;17.23;;;;;;;6.49;100.00;101449.22;5073082;28;20035;-35
2022/11/29 00:58:05;;;;;;;31.70;16.13;;;;;;;6.56;100.00;101456.34;5073713;28;20021;-35
2022/11/29 01:00:30;;;;;;;35.15;17.50;;;;;;;6.54;100.00;101458.41;5073714;28;20219;-35
2022/11/29 01:02:55;;;;;;;65.00;18.87;;;;;;;6.50;100.00;101448.22;5073227;28;20112;-35
2022/11/29 01:05:21;;;;;;;29.40;17.30;;;;;;;6.53;100.00;101455.88;5072880;28;20028;-35
2022/11/29 01:07:46;;;;;;;54.47;17.97;;;;;;;6.35;100.00;101432.97;5073451;28;20028;-35
2022/11/29 01:10:11;;;;;;;49.23;17.23;;;;;;;6.49;100.00;101457.28;5073222;28;20032;-35
2022/11/29 01:12:38;;;;;;;31.57;17.40;;;;;;;6.49;100.00;101451.91;5073106;28;20020;-34
2022/11/29 01:15:07;;;;;;;31.00;16.98;;;;;;;6.41;100.00;101440.25;5071539;28;20056;-34
2022/11/29 01:17:37;;;;;;;35.70;17.02;;;;;;;6.46;100.00;101450.44;5072767;28;20146;-34
2022/11/29 01:20:04;;;;;;;31.85;16.73;;;;;;;6.47;100.00;101451.28;5073086;28;20159;-35
2022/11/29 01:22:29;;;;;;;51.03;17.50;;;;;;;6.35;100.00;101446.41;5072690;28;20028;-35
2022/11/29 01:24:55;;;;;;;32.97;16.93;;;;;;;6.41;100.00;101460.94;5072831;28;20384;-35
2022/11/29 01:27:20;;;;;;;45.40;17.67;;;;;;;6.36;100.00;101458.81;5073030;28;20156;-35
2022/11/29 01:29:45;;;;;;;32.60;16.00;;;;;;;6.38;100.00;101462.13;5072650;28;20036;-35
2022/11/29 01:32:11;;;;;;;30.00;15.90;;;;;;;6.38;100.00;101459.44;5072662;28;20047;-34
2022/11/29 01:34:38;;;;;;;28.20;16.02;;;;;;;6.36;100.00;101458.81;5072848;28;20063;-35
2022/11/29 01:37:03;;;;;;;33.90;16.48;;;;;;;6.35;100.00;101457.16;5072782;28;20024;-35
2022/11/29 01:39:29;;;;;;;23.50;15.93;;;;;;;6.32;100.00;101457.50;5073104;28;20110;-35
2022/11/29 01:41:54;;;;;;;26.43;15.80;;;;;;;6.30;100.00;101461.41;5072758;28;20302;-34
2022/11/29 01:44:19;;;;;;;21.00;16.67;;;;;;;6.31;100.00;101471.97;5072194;28;20472;-34
2022/11/29 01:46:47;;;;;;;29.60;17.27;;;;;;;6.24;100.00;101472.88;5072146;28;20044;-34
2022/11/29 01:49:26;;;;;;;19.52;15.25;;;;;;;6.23;100.00;101466.69;5071433;28;20496;-34
2022/11/29 01:51:58;;;;;;;31.55;17.08;;;;;;;6.20;100.00;101469.75;5071448;28;20423;-35
2022/11/29 01:54:24;;;;;;;27.60;17.15;;;;;;;6.16;100.00;101473.84;5073308;28;20353;-34
2022/11/29 01:56:51;;;;;;;19.55;15.75;;;;;;;6.18;100.00;101479.84;5076358;28;20036;-34
2022/11/29 01:59:27;;;;;;;18.85;13.32;;;;;;;6.13;100.00;101472.34;5076941;28;20365;-34
2022/11/29 02:01:58;;;;;;;18.43;14.57;;;;;;;6.07;100.00;101469.59;5076097;28;20020;-34
2022/11/29 02:04:23;;;;;;;15.32;13.30;;;;;;;6.17;100.00;101499.66;5092119;28;20024;-35
2022/11/29 02:06:49;;;;;;;20.57;15.30;;;;;;;6.16;100.00;101493.47;5076559;28;20028;-34
2022/11/29 02:09:22;;;;;;;19.40;15.20;;;;;;;6.13;100.00;101496.50;5076593;28;20031;-34
2022/11/29 02:12:06;;;;;;;14.80;13.15;;;;;;;6.11;100.00;101492.38;5076363;28;20262;-34
2022/11/29 02:15:07;;;;;;;21.92;15.55;;;;;;;6.14;100.00;101495.50;5076243;28;20028;-34
2022/11/29 02:18:14;;;;;;;21.48;17.48;;;;;;;6.12;100.00;101489.47;5014407;28;20088;-34
2022/11/29 02:20:51;;;;;;;36.72;20.15;;;;;;;6.19;100.00;101497.63;4975198;28;20097;-35
2022/11/29 02:23:54;;;;;;;33.25;18.58;;;;;;;6.23;100.00;101498.91;4975304;28;20038;-34
2022/11/29 02:26:50;;;;;;;35.25;18.75;;;;;;;6.22;100.00;101502.63;4975048;28;20043;-34
2022/11/29 02:29:33;;;;;;;34.47;17.55;;;;;;;6.17;100.00;101500.50;4974827;28;20045;-35
2022/11/29 02:31:59;;;;;;;30.50;15.93;;;;;;;6.13;100.00;101495.69;4975022;28;20047;-34
2022/11/29 02:34:57;;;;;;;24.83;14.17;;;;;;;6.22;100.00;101504.47;4975377;28;20133;-35
2022/11/29 02:37:33;;;;;;;26.20;15.55;;;;;;;6.15;100.00;101494.50;4974878;28;20043;-35
2022/11/29 02:40:10;;;;;;;27.77;14.55;;;;;;;6.20;100.00;101512.72;4974743;28;20073;-35
2022/11/29 02:42:56;;;;;;;30.73;15.73;;;;;;;6.17;100.00;101508.56;4974939;28;20038;-35
2022/11/29 02:45:43;;;;;;;29.07;15.73;;;;;;;6.14;100.00;101510.78;4974892;28;20034;-35
2022/11/29 02:48:27;;;;;;;34.97;15.52;;;;;;;6.11;100.00;101511.16;4974467;28;20035;-35
2022/11/29 02:50:56;;;;;;;44.55;16.73;;;;;;;6.05;100.00;101502.00;4988632;28;20095;-35
2022/11/29 02:53:49;;;;;;;30.35;14.98;;;;;;;6.09;100.00;101515.88;5033189;28;20067;-35
2022/11/29 02:56:35;;;;;;;28.67;14.02;;;;;;;6.09;100.00;101518.53;5040227;28;20102;-35
2022/11/29 02:59:19;;;;;;;27.02;14.38;;;;;;;6.08;100.00;101514.19;5091224;28;20028;-35
2022/11/29 03:02:06;;;;;;;34.33;13.35;;;;;;;6.12;100.00;101520.88;5075321;28;20095;-35
2022/11/29 03:04:46;;;;;;;54.92;14.77;;;;;;;6.09;100.00;101526.59;5074870;28;20035;-35
2022/11/29 03:07:37;;;;;;;35.40;14.50;;;;;;;6.04;100.00;101513.72;5075062;28;20067;-35
2022/11/29 03:10:21;;;;;;;49.63;16.60;;;;;;;6.02;100.00;101521.16;5075428;28;20066;-35
2022/11/29 03:12:49;;;;;;;31.10;12.18;;;;;;;6.14;100.00;101530.41;5075360;28;20024;-35
2022/11/29 03:15:31;;;;;;;45.22;14.52;;;;;;;6.05;100.00;101523.47;5075161;28;20029;-35
2022/11/29 03:18:15;;;;;;;32.60;12.73;;;;;;;5.90;100.00;101514.53;5074967;28;20033;-34
2022/11/29 03:21:08;;;;;;;31.23;13.38;;;;;;;6.03;100.00;101533.53;5075495;28;20432;-35
2022/11/29 03:23:42;;;;;;;26.38;15.55;;;;;;;6.02;100.00;101531.88;5074930;28;20052;-34
2022/11/29 03:26:13;;;;;;;18.63;13.48;;;;;;;5.96;100.00;101538.00;5074992;28;20111;-34
2022/11/29 03:28:53;;;;;;;15.98;13.07;;;;;;;5.97;100.00;101528.09;5074818;28;20028;-35
2022/11/29 03:31:46;;;;;;;26.45;13.63;;;;;;;6.04;100.00;101545.13;5074396;28;20499;-35
2022/11/29 03:34:24;;;;;;;13.32;11.07;;;;;;;5.93;100.00;101541.03;5012543;28;20461;-35
2022/11/29 03:36:58;;;;;;;19.90;11.85;;;;;;;6.01;100.00;101549.03;5012874;28;20377;-35
2022/11/29 03:39:35;;;;;;;29.90;13.90;;;;;;;5.97;100.00;101557.63;5012475;28;20467;-34
2022/11/29 03:42:05;;;;;;;61.10;15.82;;;;;;;5.80;100.00;101557.72;5012463;28;20088;-35
2022/11/29 03:44:45;;;;;;;36.95;13.65;;;;;;;5.80;100.00;101557.72;5012384;28;20045;-35
2022/11/29 03:47:18;;;;;;;38.45;12.95;;;;;;;5.74;100.00;101544.22;5012381;28;20041;-35
2022/11/29 03:49:55;;;;;;;43.35;13.90;;;;;;;5.78;100.00;101567.00;5012708;28;20465;-34
2022/11/29 03:52:32;;;;;;;51.05;14.70;;;;;;;5.80;100.00;101568.47;5012422;28;20077;-34
2022/11/29 03:55:16;;;;;;;32.17;13.45;;;;;;;5.84;100.00;101571.63;5012975;28;20197;-35
2022/11/29 03:58:15;;;;;;;29.90;13.00;;;;;;;5.85;100.00;101571.44;5012627;28;20038;-34
2022/11/29 04:01:05;;;;;;;29.35;12.65;;;;;;;5.85;100.00;101579.50;5012550;28;20543;-35
2022/11/29 04:03:49;;;;;;;37.67;13.20;;;;;;;5.87;100.00;101580.16;5012069;28;20084;-35
2022/11/29 04:06:29;;;;;;;38.30;12.73;;;;;;;5.80;100.00;101573.84;5012414;28;20478;-35
2022/11/29 04:09:19;;;;;;;47.22;13.02;;;;;;;5.86;100.00;101585.72;5011955;28;20038;-35
2022/11/29 04:12:22;;;;;;;37.60;12.52;;;;;;;5.83;100.00;101580.72;5051913;28;20128;-34
2022/11/29 04:15:05;;;;;;;30.10;12.38;;;;;;;5.78;100.00;101583.09;5074514;28;20032;-35
2022/11/29 04:17:46;;;;;;;55.50;13.50;;;;;;;5.72;100.00;101579.28;5073208;28;20032;-35
2022/11/29 04:20:41;;;;;;;42.03;13.18;;;;;;;5.69;100.00;101575.09;5074380;28;20151;-34
2022/11/29 04:23:51;;;;;;;22.42;12.35;;;;;;;5.75;100.00;101584.28;5073952;28;20098;-35
2022/11/29 04:26:35;;;;;;;41.92;12.85;;;;;;;5.71;100.00;101590.19;5070657;28;20048;-35
2022/11/29 04:29:38;;;;;;;35.85;13.00;;;;;;;5.72;100.00;101595.41;5073889;28;20031;-35
2022/11/29 04:32:25;;;;;;;39.58;12.68;;;;;;;5.66;100.00;101607.69;5074175;28;20025;-35
2022/11/29 04:35:09;;;;;;;25.75;11.85;;;;;;;5.73;100.00;101601.59;5073752;28;20033;-35
2022/11/29 04:38:05;;;;;;;31.77;12.45;;;;;;;5.68;100.00;101604.81;5073767;28;20024;-34
2022/11/29 04:40:54;;;;;;;30.60;11.95;;;;;;;5.59;100.00;101598.69;5073531;28;20024;-35
2022/11/29 04:43:47;;;;;;;23.05;11.85;;;;;;;5.68;100.00;101618.25;5073671;28;20054;-35
2022/11/29 04:46:41;;;;;;;41.35;12.90;;;;;;;5.56;100.00;101604.41;5072940;28;20089;-35
2022/11/29 04:49:18;;;;;;;28.55;12.40;;;;;;;5.60;100.00;101612.91;5073936;28;20033;-34
2022/11/29 04:52:17;;;;;;;34.40;12.55;;;;;;;5.65;100.00;101621.25;5073869;28;20086;-35
2022/11/29 04:55:07;;;;;;;33.42;11.40;;;;;;;5.53;100.00;101604.78;5073653;28;20171;-34
2022/11/29 04:57:56;;;;;;;45.67;13.40;;;;;;;5.61;100.00;101618.13;5073577;28;20020;-35
2022/11/29 05:00:23;;;;;;;20.48;11.07;;;;;;;5.65;100.00;101623.94;5073038;28;20469;-35
2022/11/29 05:03:03;;;;;;;18.17;11.77;;;;;;;5.64;100.00;101625.81;5072979;28;20087;-34
2022/11/29 05:05:36;;;;;;;18.42;12.32;;;;;;;5.67;100.00;101625.44;5073377;28;20112;-35
2022/11/29 05:08:26;;;;;;;37.92;13.15;;;;;;;5.69;100.00;101634.16;5073365;28;20043;-35
2022/11/29 05:11:02;;;;;;;20.60;12.57;;;;;;;5.76;100.00;101633.41;5071904;28;20033;-35
2022/11/29 05:13:51;;;;;;;22.77;12.38;;;;;;;5.75;100.00;101643.31;5073097;28;20020;-34
2022/11/29 05:16:41;;;;;;;22.77;12.68;;;;;;;5.72;100.00;101635.66;5073414;28;20025;-35
2022/11/29 05:19:09;;;;;;;31.63;13.27;;;;;;;5.74;100.00;101651.56;5072851;28;20132;-36
2022/11/29 05:21:49;;;;;;;22.88;12.07;;;;;;;5.75;100.00;101651.38;5073042;28;20413;-36
2022/11/29 05:24:34;;;;;;;30.67;13.23;;;;;;;5.75;100.00;101654.06;5072398;28;20066;-36
2022/11/29 05:27:17;;;;;;;19.33;13.32;;;;;;;5.78;100.00;101653.72;5072431;28;20138;-34
2022/11/29 05:29:49;;;;;;;26.67;13.77;;;;;;;5.80;100.00;101656.22;5072535;28;20532;-35
2022/11/29 05:32:29;;;;;;;30.50;14.40;;;;;;;5.78;100.00;101663.63;5072714;28;20086;-34
2022/11/29 05:35:30;;;;;;;40.40;14.93;;;;;;;5.82;100.00;101662.25;5073473;28;20157;-34
2022/11/29 05:38:14;;;;;;;30.63;14.50;;;;;;;5.73;100.00;101645.38;5010798;28;20473;-35
2022/11/29 05:40:54;;;;;;;30.92;14.98;;;;;;;5.85;100.00;101660.00;5010990;28;20157;-34
2022/11/29 05:43:55;;;;;;;39.55;15.90;;;;;;;5.87;100.00;101663.38;5010742;28;20030;-34
2022/11/29 05:46:57;;;;;;;35.58;16.30;;;;;;;5.88;100.00;101669.56;4971401;28;20562;-34
2022/11/29 05:49:40;;;;;;;43.25;18.35;;;;;;;5.81;100.00;101680.22;4971685;28;20050;-35
2022/11/29 05:52:29;;;;;;;36.80;16.60;;;;;;;5.86;100.00;101683.19;4971530;28;20054;-35
2022/11/29 05:55:12;;;;;;;30.05;16.20;;;;;;;5.86;100.00;101693.09;4971797;28;20038;-35
2022/11/29 05:57:54;;;;;;;36.05;16.08;;;;;;;5.75;100.00;101672.00;4971439;28;20045;-35
2022/11/29 06:00:20;;;;;;;25.30;13.40;;;;;;;5.87;100.00;101684.84;4971382;28;20430;-35
2022/11/29 06:03:02;;;;;;;30.85;14.38;;;;;;;5.85;100.00;101694.91;4971738;28;20042;-35
2022/11/29 06:05:47;;;;;;;26.58;15.55;;;;;;;5.79;100.00;101698.31;4971578;28;20177;-35
2022/11/29 06:08:30;;;;;;;35.28;14.00;;;;;;;5.67;100.00;101679.13;4971538;28;20039;-35
2022/11/29 06:11:01;;;;;;;38.38;15.05;;;;;;;5.76;100.00;101698.69;4977629;28;20038;-35
2022/11/29 06:13:49;;;;;;;36.83;14.75;;;;;;;5.74;100.00;101699.88;5030209;28;20117;-35
2022/11/29 06:16:46;;;;;;;29.23;14.25;;;;;;;5.80;100.00;101709.88;5030496;28;20048;-45
2022/11/29 06:19:36;;;;;;;27.67;14.50;;;;;;;5.86;100.00;101715.41;5016013;28;20088;-35
2022/11/29 06:22:33;;;;;;;28.35;14.80;;;;;;;5.87;100.00;101711.69;5031459;28;20033;-33
2022/11/29 06:25:11;;;;;;;29.77;14.93;;;;;;;5.91;100.00;101717.53;5072336;28;20039;-35
2022/11/29 06:27:52;;;;;;;26.70;14.13;;;;;;;5.92;100.00;101722.75;5072647;28;20039;-36
2022/11/29 06:30:21;;;;;;;39.80;15.73;;;;;;;5.87;100.00;101719.75;5072573;28;20035;-36
2022/11/29 06:33:14;;;;;;;34.92;13.88;;;;;;;5.98;100.00;101733.78;5071627;28;20025;-35
2022/11/29 06:35:47;;;;;;;23.45;12.85;;;;;;;5.97;100.00;101737.50;5072607;28;20090;-35
2022/11/29 06:38:15;;;;;;;47.15;15.60;;;;;;;5.86;100.00;101733.34;5072810;28;20373;-36
2022/11/29 06:40:40;;;;;;;29.55;13.80;;;;;;;5.93;100.00;101734.31;5073512;28;20024;-36
2022/11/29 06:43:06;;;;;;;36.08;15.23;;;;;;;5.89;100.00;101747.22;5074844;28;20020;-35
2022/11/29 06:45:32;;;;;;;23.40;13.30;;;;;;;5.85;100.00;101742.41;5075522;28;20020;-35
2022/11/29 06:48:02;;;;;;;26.40;12.65;;;;;;;5.92;100.00;101757.66;5075520;28;20522;-36
2022/11/29 06:50:33;;;;;;;35.30;13.82;;;;;;;5.87;100.00;101748.44;5075491;28;20477;-36
2022/11/29 06:53:06;;;;;;;45.17;14.70;;;;;;;5.81;100.00;101754.53;5075789;28;20103;-36
2022/11/29 06:55:46;;;;;;;40.58;13.77;;;;;;;5.82;100.00;101767.75;5075458;28;20032;-35
2022/11/29 06:58:32;;;;;;;33.03;12.57;;;;;;;5.83;100.00;101764.06;5075485;28;20103;-35
2022/11/29 07:01:45;;;;;;;42.30;14.83;;;;;;;5.85;100.00;101766.56;5075926;28;20036;-36
2022/11/29 07:04:16;;;;;;;32.55;14.35;;;;;;;5.85;100.00;101769.25;5013108;28;20065;-36
2022/11/29 07:06:42;;;;;;;38.05;14.90;;;;;;;5.85;100.00;101774.59;5013198;28;20034;-35
2022/11/29 07:09:20;;;;;;;22.20;12.00;;;;;;;5.91;100.00;101771.25;5013422;28;20108;-36
2022/11/29 07:11:46;;;;;;;30.98;14.05;;;;;;;5.89;100.00;101776.75;5013591;28;20038;-35
2022/11/29 07:14:12;;;;;;;34.30;13.57;;;;;;;5.87;100.00;101777.97;5013385;28;20042;-36
2022/11/29 07:16:49;;;;;;;34.40;14.27;;;;;;;5.89;100.00;101781.31;5012891;28;20490;-35
2022/11/29 07:19:27;;;;;;;35.88;15.48;;;;;;;5.84;100.00;101775.63;5013133;28;20054;-36
2022/11/29 07:22:17;;;;;;;41.08;15.20;;;;;;;5.88;100.00;101785.00;5013537;28;20474;-36
2022/11/29 07:25:02;;;;;;;31.10;14.73;;;;;;;5.91;100.00;101792.72;5013229;28;20033;-36
2022/11/29 07:27:48;;;;;;;35.20;14.50;;;;;;;5.83;100.00;101776.66;5012824;28;20551;-36
2022/11/29 07:30:17;;;;;;;48.80;14.38;;;;;;;5.83;100.00;101790.06;5013163;28;20110;-36
2022/11/29 07:32:54;;;;;;;36.58;14.75;;;;;;;5.86;100.00;101797.78;5012589;28;20116;-36
2022/11/29 07:35:47;;;;;;;55.40;15.45;;;;;;;5.81;100.00;101798.31;5012816;28;20029;-36
2022/11/29 07:38:53;;;;;;;35.05;14.15;;;;;;;5.88;100.00;101804.63;5012543;28;20044;-35
2022/11/29 07:41:56;;;;;;;33.63;14.07;;;;;;;5.89;100.00;101800.09;5062379;28;20033;-35
2022/11/29 07:44:34;;;;;;;39.35;13.23;;;;;;;5.90;100.00;101802.63;5074412;28;20017;-36
2022/11/29 07:46:59;;;;;;;29.80;13.00;;;;;;;5.84;100.00;101797.09;5074735;28;20024;-35
2022/11/29 07:49:25;;;;;;;48.83;15.57;;;;;;;5.83;100.00;101800.81;5074331;28;20443;-35
2022/11/29 07:51:53;;;;;;;65.55;16.38;;;;;;;5.73;100.00;101801.03;5073556;28;20457;-35
2022/11/29 07:54:19;;;;;;;44.03;15.60;;;;;;;5.77;100.00;101798.84;5074475;28;20086;-36
2022/11/29 07:56:44;;;;;;;39.85;14.40;;;;;;;5.90;100.00;101818.72;5074258;28;20032;-36
2022/11/29 07:59:11;;;;;;;40.75;14.13;;;;;;;5.88;100.00;101818.06;5074487;28;20059;-35
2022/11/29 08:01:36;;;;;;;46.03;14.88;;;;;;;5.86;100.00;101822.78;5073834;28;20162;-35
2022/11/29 08:04:02;;;;;;;31.77;14.20;;;;;;;5.75;100.00;101799.00;5074593;28;20044;-35
2022/11/29 08:06:27;;;;;;;24.53;12.33;;;;;;;5.98;100.00;101819.72;5074156;28;20052;-35
2022/11/29 08:08:56;;;;;;;32.23;14.33;;;;;;;5.96;100.00;101819.06;5073660;28;20040;-35
2022/11/29 08:11:21;;;;;;;26.27;12.85;;;;;;;5.98;100.00;101819.72;5073913;28;20461;-35
2022/11/29 08:13:47;;;;;;;30.97;13.63;;;;;;;5.96;100.00;101817.22;5074642;28;20036;-35
2022/11/29 08:16:16;;;;;;;25.87;14.73;;;;;;;5.93;100.00;101818.38;5073856;28;20392;-35
2022/11/29 08:18:42;;;;;;;38.55;14.85;;;;;;;6.03;100.00;101822.69;5074052;28;20048;-35
2022/11/29 08:21:08;;;;;;;61.17;15.52;;;;;;;6.00;100.00;101818.50;5074276;28;20115;-35
2022/11/29 08:23:33;;;;;;;29.10;13.93;;;;;;;6.08;100.00;101831.06;5074050;28;20376;-35
2022/11/29 08:26:02;;;;;;;35.80;16.27;;;;;;;6.10;100.00;101831.72;5073698;28;20028;-35
2022/11/29 08:28:28;;;;;;;32.90;16.80;;;;;;;6.09;100.00;101830.03;5073923;28;20028;-35
2022/11/29 08:31:04;;;;;;;29.73;17.15;;;;;;;6.14;100.00;101830.34;5073662;28;20024;-35
2022/11/29 08:33:30;;;;;;;42.97;17.85;;;;;;;6.14;100.00;101830.34;5074088;28;20025;-35
2022/11/29 08:35:55;;;;;;;33.15;17.45;;;;;;;6.18;100.00;101831.66;5073939;28;20465;-35
2022/11/29 08:38:21;;;;;;;33.95;18.58;;;;;;;6.22;100.00;101840.22;5073329;28;20430;-35
2022/11/29 08:40:47;;;;;;;35.70;17.48;;;;;;;6.22;100.00;101834.84;5073841;28;20016;-35
2022/11/29 08:43:12;;;;;;;35.72;17.75;;;;;;;6.28;100.00;101837.63;5073711;28;20035;-35
2022/11/29 08:45:37;;;;;;;42.53;17.77;;;;;;;6.24;100.00;101830.94;5073456;28;20024;-35
2022/11/29 08:48:03;;;;;;;38.87;17.47;;;;;;;6.34;100.00;101844.97;5073361;28;20020;-35
2022/11/29 08:50:28;;;;;;;33.08;17.10;;;;;;;6.41;100.00;101847.81;5071996;28;20472;-35
2022/11/29 08:55:41;;;;;;;45.22;18.00;;;;;;;6.38;100.00;101838.22;5073323;28;20577;-35
2022/11/29 08:58:09;;;;;;;65.43;19.55;;;;;;;6.43;100.00;101857.34;5073426;28;20036;-35
2022/11/29 09:00:36;;;;;;;50.20;18.70;;;;;;;6.49;100.00;101860.31;5072801;28;20143;-35
2022/11/29 09:05:48;;;;;;;49.25;19.27;;;;;;;6.48;100.00;101861.34;5073037;28;20038;-35
2022/11/29 09:08:13;;;;;;;53.78;18.02;;;;;;;6.46;100.00;101861.53;5073261;28;20111;-35
2022/11/29 09:10:40;;;;;;;74.55;20.25;;;;;;;6.43;100.00;101851.97;5072926;28;20392;-35
2022/11/29 09:13:07;;;;;;;52.72;19.48;;;;;;;6.52;100.00;101870.72;5073616;28;20449;-35
2022/11/29 09:15:32;;;;;;;50.65;19.40;;;;;;;6.56;100.00;101880.09;5073314;28;20032;-35
2022/11/29 09:17:57;;;;;;;38.50;16.70;;;;;;;6.60;100.00;101881.41;5071819;28;20190;-35
2022/11/29 09:20:23;;;;;;;46.77;17.97;;;;;;;6.62;100.00;101882.91;5073225;28;20490;-35
2022/11/29 09:22:48;;;;;;;42.20;19.57;;;;;;;6.65;100.00;101879.88;5072492;28;20506;-35
2022/11/29 09:25:13;;;;;;;63.43;21.07;;;;;;;6.66;100.00;101883.38;5072848;28;20020;-35
2022/11/29 09:27:40;;;;;;;57.27;21.30;;;;;;;6.59;100.00;101872.53;5073271;28;20422;-35
2022/11/29 09:30:07;;;;;;;41.75;16.38;;;;;;;6.78;100.00;101894.53;5071470;28;20191;-35
2022/11/29 09:32:33;;;;;;;56.55;19.90;;;;;;;6.76;100.00;101886.66;5072704;28;20048;-35
2022/11/29 09:34:58;;;;;;;64.93;19.48;;;;;;;6.82;100.00;101898.53;5072736;28;20380;-35
2022/11/29 09:37:24;;;;;;;42.80;17.83;;;;;;;6.88;100.00;101896.00;5072701;28;20029;-35
2022/11/29 09:39:49;;;;;;;51.50;18.77;;;;;;;6.89;100.00;101900.34;5072833;28;20021;-35
2022/11/29 09:42:36;;;;;;;43.40;21.07;;;;;;;6.86;100.00;101895.31;5072607;28;20028;-35
2022/11/29 09:45:05;;;;;;;44.05;19.55;;;;;;;6.95;100.00;101910.38;5073137;28;20113;-35
2022/11/29 09:48:17;;;;;;;60.97;19.33;;;;;;;6.99;100.00;101921.59;5072539;28;20060;-35
2022/11/29 09:50:51;;;;;;;44.85;19.25;;;;;;;6.97;100.00;101916.38;5072682;28;20044;-35
2022/11/29 09:53:42;;;;;;;44.00;18.33;;;;;;;6.94;100.00;101908.69;5072485;28;20024;-35
2022/11/29 09:56:13;;;;;;;45.58;19.08;;;;;;;7.01;100.00;101919.56;5072814;28;20063;-35
2022/11/29 09:58:58;;;;;;;46.00;19.27;;;;;;;7.02;100.00;101917.69;5072753;28;20036;-35
2022/11/29 10:01:33;;;;;;;65.53;20.05;;;;;;;6.89;100.00;101908.41;5073189;28;20038;-35
2022/11/29 10:04:07;;;;;;;46.00;18.00;;;;;;;6.92;100.00;101908.03;5072419;28;20032;-35
2022/11/29 10:06:39;;;;;;;52.47;19.00;;;;;;;6.86;100.00;101903.38;5072586;28;20063;-35
2022/11/29 10:09:14;;;;;;;54.55;19.33;;;;;;;6.82;100.00;101902.06;5072448;28;20101;-35
2022/11/29 10:11:51;;;;;;;42.83;20.02;;;;;;;6.93;100.00;101909.72;5072093;28;20025;-35
2022/11/29 10:14:23;;;;;;;45.08;18.73;;;;;;;7.04;100.00;101921.91;5072843;28;20078;-35
2022/11/29 10:16:59;;;;;;;35.80;17.15;;;;;;;7.06;100.00;101924.41;5075288;28;20032;-35
2022/11/29 10:19:37;;;;;;;30.77;15.17;;;;;;;7.09;100.00;101922.19;5076187;28;20135;-35
2022/11/29 10:22:14;;;;;;;33.13;14.57;;;;;;;7.10;100.00;101923.03;5075796;28;20072;-35
2022/11/29 10:24:43;;;;;;;28.42;12.77;;;;;;;7.10;100.00;101917.63;5076752;28;20372;-35
2022/11/29 10:27:18;;;;;;;33.95;14.93;;;;;;;7.07;100.00;101918.00;5076986;28;20365;-35
2022/11/29 10:29:47;;;;;;;32.50;16.23;;;;;;;7.09;100.00;101911.44;5076328;28;20089;-35
2022/11/29 10:32:14;;;;;;;31.25;14.98;;;;;;;7.06;100.00;101897.50;5075831;28;20032;-35
2022/11/29 10:34:41;;;;;;;40.13;15.95;;;;;;;7.11;100.00;101913.94;5075663;28;20048;-35
2022/11/29 10:37:11;;;;;;;35.33;16.67;;;;;;;7.12;100.00;101911.03;5076252;28;20028;-35
2022/11/29 10:39:56;;;;;;;35.92;16.00;;;;;;;7.10;100.00;101914.94;5075835;28;20041;-35
2022/11/29 10:45:32;;;;;;;28.02;14.68;;;;;;;7.07;100.00;101918.81;5075638;28;20064;-35
2022/11/29 10:48:03;;;;;;;29.83;14.23;;;;;;;7.08;100.00;101914.31;5075784;28;20016;-35
2022/11/29 10:50:32;;;;;;;30.15;15.73;;;;;;;7.09;100.00;101921.34;5076026;28;20043;-35
2022/11/29 10:53:06;;;;;;;31.80;15.90;;;;;;;7.11;100.00;101913.94;5075152;28;20440;-35
2022/11/29 10:55:42;;;;;;;30.60;15.55;;;;;;;7.11;100.00;101919.31;5075808;28;20029;-35
2022/11/29 10:58:18;;;;;;;34.22;17.92;;;;;;;7.12;100.00;101926.34;5075650;28;20029;-35
2022/11/29 11:00:56;;;;;;;32.15;17.17;;;;;;;7.12;100.00;101923.66;5075132;28;20032;-35
2022/11/29 11:03:26;;;;;;;94.40;19.42;;;;;;;7.01;100.00;101922.25;5075375;28;20028;-35
2022/11/29 11:06:09;;;;;;;46.53;17.80;;;;;;;7.05;100.00;101928.94;5075717;28;20081;-35
2022/11/29 11:08:37;;;;;;;32.08;16.13;;;;;;;7.11;100.00;101932.75;5075266;28;20181;-35
2022/11/29 11:11:05;;;;;;;33.45;17.48;;;;;;;7.08;100.00;101920.53;5075118;28;20071;-35
2022/11/29 11:13:31;;;;;;;44.72;17.67;;;;;;;7.17;100.00;101921.25;5074888;28;20016;-35
2022/11/29 11:16:15;;;;;;;40.35;17.58;;;;;;;7.21;100.00;101925.25;5075149;28;20119;-36
2022/11/29 11:18:42;;;;;;;37.13;18.27;;;;;;;7.02;100.00;101888.13;5075227;28;20025;-36
2022/11/29 11:21:10;;;;;;;41.10;18.75;;;;;;;7.19;100.00;101908.47;5075910;28;20387;-35
2022/11/29 11:23:41;;;;;;;35.42;17.15;;;;;;;7.14;100.00;101900.97;5075248;28;20034;-36
2022/11/29 11:26:10;;;;;;;34.33;18.17;;;;;;;7.23;100.00;101907.09;5074706;28;20024;-36
2022/11/29 11:29:00;;;;;;;41.28;19.50;;;;;;;7.30;100.00;101918.78;5075059;28;20032;-35
2022/11/29 11:31:36;;;;;;;45.67;18.48;;;;;;;7.26;100.00;101930.94;5074922;28;20024;-35
2022/11/29 11:34:32;;;;;;;33.25;17.52;;;;;;;7.33;100.00;101933.75;5075116;28;20024;-36
2022/11/29 11:37:18;;;;;;;32.53;16.98;;;;;;;7.33;100.00;101934.56;5073300;28;20045;-35
2022/11/29 11:39:49;;;;;;;39.10;17.73;;;;;;;7.28;100.00;101933.47;5074712;28;20082;-35
2022/11/29 11:42:37;;;;;;;36.63;17.55;;;;;;;7.28;100.00;101928.91;5074853;28;20035;-35
2022/11/29 11:45:11;;;;;;;44.00;18.15;;;;;;;7.28;100.00;101936.97;5074871;28;20025;-35
2022/11/29 11:47:42;;;;;;;40.85;19.52;;;;;;;7.26;100.00;101949.75;5075324;28;20025;-35
2022/11/29 11:50:23;;;;;;;38.72;18.15;;;;;;;7.28;100.00;101950.44;5074607;28;20024;-35
2022/11/29 11:52:52;;;;;;;36.53;17.98;;;;;;;7.22;100.00;101933.16;5074715;28;20028;-35
2022/11/29 11:55:20;;;;;;;40.47;18.65;;;;;;;7.30;100.00;101956.47;5075180;28;20115;-35
2022/11/29 11:58:03;;;;;;;45.45;20.48;;;;;;;7.27;100.00;101945.22;5074411;28;20060;-35